Grissom ARB Airport
KGUS : now visible

Airfield :











YOU CAN JOIN US ON...

 
LOGIN :

Register | Disclaimer

   EN    FR    IT 

 









Legend :    VFR   Marginal VFR   IFR   Intensive IFR   Very Intensive IFR
Visi :
Ceiling :
>= 8 km
>= 3000ft
5 to 8 km
1000 to 3000 ft
1500m to 5 km
500 to 1000 ft
800 to 1500m
200 to 500 ft
< 800m
< 200 ft
Symbols :   Thunderstorms  Fog  Heavy snow  Heavy precipitations  Wind > 20 kt






- Airport Elevation : 812 ft


KGUS - Grissom ARB

CURRENT METAR :
  • 141556Z AUTO 26007KT 10SM CLR M01/M05 A3021 RMK AO2 SLP244 T10081049 $

EXPIRED METARs :
  • 141356Z AUTO 23005KT 10SM OVC050 M02/M04 A3019 RMK AO2 SLP237 T10201042 $

TAF TAF KGUS
Valid from the 14 at 11:00 until the 15 at 17:00 UTC


141100Z 1411/1517 21006KT 9999 FEW045 SCT080 QNH3012INS
BECMG 1422/1423 28006KT 9999 SCT006 OVC015 620152 QNH3022INS
BECMG 1504/1505 28009KT 6000 BR BKN006 OVC015 620062 QNH3027INS
BECMG 1511/1512 26012KT 9999 NSW FEW006 SCT015 QNH3030INS TX00/1420Z TNM05/1411Z



MET'MAP, your aeronautical weather chart ! - Copyright ORBIFLY December 2007 - Disclaimer

ORBIFLY MET'MAP TEAM :

Programming & Development : Alexandra Zaïnal
Concept & Development : Baudouin d'Aumeries
Co-Development & Prog : Marc-Olivier Méhu
Technical & hardware support : Manuel Goepfert

Contact : metmap@orbifly.com




SOURCES & CREDITS :

   NOAA       Earth
Advisory